Time;durP1;ratioP1;P1;durP2;ratioP2;P2;SDS_P1;SDS_P2;PMS_P1;PMS_P2;Temp;Humidity;BMP_temperature;BMP_pressure;BME280_temperature;BME280_humidity;BME280_pressure;Samples;Min_cycle;Max_cycle;Signal;HPM_P1;HPM_P2
2023/01/02 00:01:18;;;;;;;2.10;1.80;;;;;;;13.45;62.68;98833.53;5048248;27;103634;-74
2023/01/02 00:03:46;;;;;;;3.27;2.00;;;;;;;13.62;62.61;98836.50;5043944;27;102546;-74
2023/01/02 00:06:16;;;;;;;3.60;1.53;;;;;;;13.46;62.82;98828.13;5044647;27;103276;-74
2023/01/02 00:08:47;;;;;;;2.30;1.73;;;;;;;13.52;62.75;98816.16;5045503;27;103787;-75
2023/01/02 00:11:16;;;;;;;3.97;2.60;;;;;;;13.52;62.50;98808.22;5042995;27;103590;-75
2023/01/02 00:13:43;;;;;;;2.90;2.10;;;;;;;13.70;62.07;98809.31;5043177;27;102905;-74
2023/01/02 00:16:14;;;;;;;3.03;1.93;;;;;;;13.76;62.22;98814.13;5043688;27;104076;-73
2023/01/02 00:18:41;;;;;;;3.20;2.00;;;;;;;13.75;63.09;98815.09;5044183;27;104407;-75
2023/01/02 00:21:10;;;;;;;2.80;1.60;;;;;;;13.77;62.87;98810.50;5040202;27;103145;-73
2023/01/02 00:23:38;;;;;;;2.57;2.10;;;;;;;13.66;63.62;98802.59;5041761;27;103253;-76
2023/01/02 00:26:07;;;;;;;2.17;1.50;;;;;;;13.71;63.55;98808.34;5043571;27;103974;-74
2023/01/02 00:28:36;;;;;;;4.07;1.70;;;;;;;13.75;63.04;98802.66;5039298;27;104373;-74
2023/01/02 00:31:07;;;;;;;3.50;1.40;;;;;;;13.73;63.04;98793.13;5040519;27;103204;-73
2023/01/02 00:33:35;;;;;;;1.77;1.63;;;;;;;13.73;63.01;98786.00;5037756;27;102717;-74
2023/01/02 00:36:05;;;;;;;3.80;2.10;;;;;;;13.81;62.51;98790.72;5038702;27;103072;-73
2023/01/02 00:38:33;;;;;;;2.40;1.87;;;;;;;13.81;62.16;98790.72;5040907;27;104136;-73
2023/01/02 00:41:07;;;;;;;1.90;1.43;;;;;;;13.87;61.84;98787.50;5057209;27;103124;-74
2023/01/02 00:43:35;;;;;;;2.70;1.70;;;;;;;13.94;61.35;98781.56;5039849;27;102908;-75
2023/01/02 00:46:03;;;;;;;2.37;1.40;;;;;;;14.00;61.14;98785.53;5043946;27;102751;-76
2023/01/02 00:48:38;;;;;;;1.40;1.23;;;;;;;14.02;61.12;98793.34;5040540;27;104217;-75
2023/01/02 00:51:06;;;;;;;2.43;1.60;;;;;;;14.01;61.21;98792.50;5041755;27;103189;-74
2023/01/02 00:53:34;;;;;;;2.30;2.10;;;;;;;13.97;61.69;98791.09;5041586;27;102831;-74
2023/01/02 00:56:02;;;;;;;1.97;1.70;;;;;;;13.94;61.06;98797.50;5045479;27;102931;-75
2023/01/02 00:58:31;;;;;;;3.00;1.90;;;;;;;13.87;61.04;98795.47;5045873;27;103998;-73
2023/01/02 01:01:00;;;;;;;3.33;2.00;;;;;;;13.79;60.61;98803.25;5043262;27;103228;-71
2023/01/02 01:03:28;;;;;;;2.00;1.80;;;;;;;13.82;61.74;98806.50;5057976;27;102834;-73
2023/01/02 01:05:56;;;;;;;2.20;1.60;;;;;;;13.60;62.20;98811.06;5044346;27;102721;-73
2023/01/02 01:08:24;;;;;;;2.00;1.70;;;;;;;13.13;63.76;98809.66;5042488;27;104002;-75
2023/01/02 01:10:52;;;;;;;4.03;1.83;;;;;;;13.45;62.59;98820.28;5044652;27;104082;-72
2023/01/02 01:13:20;;;;;;;3.43;1.97;;;;;;;13.51;62.12;98814.47;5043479;27;102851;-75
2023/01/02 01:15:49;;;;;;;4.17;1.30;;;;;;;13.79;61.66;98824.50;5052147;27;103801;-73
2023/01/02 01:18:17;;;;;;;2.37;2.00;;;;;;;13.49;62.63;98813.75;5042976;27;103156;-75
2023/01/02 01:20:45;;;;;;;1.93;1.70;;;;;;;13.73;62.36;98819.69;5046590;27;103106;-74
2023/01/02 01:23:12;;;;;;;2.47;1.80;;;;;;;13.51;63.17;98820.63;5045793;27;104158;-73
2023/01/02 01:25:40;;;;;;;2.00;1.60;;;;;;;13.77;62.66;98816.66;5048401;27;102839;-74
2023/01/02 01:28:08;;;;;;;2.27;1.50;;;;;;;13.82;62.78;98818.94;5046580;27;103328;-74
2023/01/02 01:30:36;;;;;;;1.87;1.43;;;;;;;13.63;63.45;98814.31;5044126;27;103681;-73
2023/01/02 01:33:05;;;;;;;3.70;1.60;;;;;;;13.44;64.32;98810.66;5058092;27;102741;-74
2023/01/02 01:35:33;;;;;;;1.37;1.13;;;;;;;13.27;65.59;98815.53;5059478;27;102742;-73
2023/01/02 01:38:01;;;;;;;3.40;1.63;;;;;;;13.34;65.80;98829.97;5043372;27;103312;-75
2023/01/02 01:40:36;;;;;;;3.43;1.90;;;;;;;12.94;67.12;98825.34;5045445;27;103179;-74
2023/01/02 01:43:04;;;;;;;1.90;1.67;;;;;;;13.33;66.28;98827.47;5043936;27;102935;-73
2023/01/02 01:45:33;;;;;;;2.77;1.70;;;;;;;12.75;67.71;98826.78;5042780;27;103016;-75
2023/01/02 01:48:03;;;;;;;3.60;1.90;;;;;;;13.06;67.17;98822.53;5042335;27;105087;-73
2023/01/02 01:50:34;;;;;;;1.97;1.60;;;;;;;13.15;67.18;98824.47;5056173;27;103959;-72
2023/01/02 01:53:09;;;;;;;3.87;1.77;;;;;;;13.08;67.12;98823.25;5045391;27;103662;-73
2023/01/02 01:55:41;;;;;;;3.13;1.80;;;;;;;13.25;66.95;98833.38;5043536;27;104208;-74
2023/01/02 01:58:12;;;;;;;3.63;1.90;;;;;;;12.75;68.08;98817.97;5045245;27;103243;-73
2023/01/02 02:00:41;;;;;;;3.47;1.40;;;;;;;12.90;68.02;98829.19;5040420;27;103191;-74
2023/01/02 02:03:14;;;;;;;2.80;1.90;;;;;;;13.12;66.64;98823.88;5045959;27;103344;-73
2023/01/02 02:05:44;;;;;;;2.00;1.73;;;;;;;12.99;68.29;98817.84;5045353;27;103016;-73
2023/01/02 02:08:18;;;;;;;1.87;1.67;;;;;;;12.96;67.52;98824.25;5048766;27;103322;-74
2023/01/02 02:10:47;;;;;;;3.70;2.00;;;;;;;12.91;66.35;98826.41;5039676;27;103171;-73
2023/01/02 02:13:15;;;;;;;2.53;1.67;;;;;;;13.17;66.25;98822.53;5047162;27;103165;-73
2023/01/02 02:15:48;;;;;;;2.97;1.90;;;;;;;13.14;66.13;98814.81;5043486;27;104184;-73
2023/01/02 02:18:29;;;;;;;2.67;1.57;;;;;;;13.02;66.23;98815.78;5065085;27;103053;-74
2023/01/02 02:21:06;;;;;;;2.10;1.60;;;;;;;13.12;66.04;98818.56;5040855;27;103301;-74
2023/01/02 02:24:07;;;;;;;3.57;1.63;;;;;;;13.18;65.31;98810.97;5045510;27;102636;-74
2023/01/02 02:27:12;;;;;;;2.83;1.90;;;;;;;13.22;65.76;98799.13;5040758;27;102549;-73
2023/01/02 02:30:06;;;;;;;3.50;1.73;;;;;;;13.27;65.24;98796.97;5042264;27;102979;-73
2023/01/02 02:32:51;;;;;;;2.60;1.97;;;;;;;13.25;66.23;98779.44;5041880;27;104244;-73
2023/01/02 02:35:32;;;;;;;2.57;1.87;;;;;;;13.20;66.59;98771.03;5044101;27;104052;-73
2023/01/02 02:38:07;;;;;;;2.57;2.03;;;;;;;13.13;66.32;98768.06;5042755;27;103164;-74
2023/01/02 02:40:49;;;;;;;2.10;1.90;;;;;;;13.13;66.60;98762.75;5054758;27;104069;-72
2023/01/02 02:43:24;;;;;;;2.97;1.90;;;;;;;13.09;66.29;98763.97;5041676;27;104147;-75
2023/01/02 02:46:04;;;;;;;3.43;1.83;;;;;;;13.20;65.57;98765.72;5044387;27;103430;-75
2023/01/02 02:48:42;;;;;;;4.37;2.10;;;;;;;13.27;64.26;98765.13;5043045;27;103929;-72
2023/01/02 02:51:19;;;;;;;2.80;2.00;;;;;;;13.35;64.19;98757.38;5043010;27;105162;-74
2023/01/02 02:53:54;;;;;;;2.47;1.97;;;;;;;13.44;62.65;98760.22;5042964;27;103146;-73
2023/01/02 02:56:28;;;;;;;2.73;1.80;;;;;;;13.46;62.53;98750.31;5049689;27;103638;-74
2023/01/02 02:58:56;;;;;;;4.03;1.87;;;;;;;13.52;62.34;98765.75;5048164;27;103089;-74
2023/01/02 03:01:29;;;;;;;3.87;1.83;;;;;;;13.57;62.06;98759.06;5047688;27;103164;-75
2023/01/02 03:03:58;;;;;;;3.20;1.50;;;;;;;13.70;61.63;98754.41;5047438;27;103378;-73
2023/01/02 03:06:44;;;;;;;4.97;2.20;;;;;;;13.67;61.66;98745.88;5046736;27;102987;-73
2023/01/02 03:09:18;;;;;;;3.53;2.13;;;;;;;13.70;61.48;98745.59;5046746;27;102593;-73
2023/01/02 03:11:55;;;;;;;2.83;2.40;;;;;;;13.55;62.18;98744.25;5044147;27;104297;-73
2023/01/02 03:14:31;;;;;;;4.27;2.20;;;;;;;13.57;62.07;98750.25;5046223;27;103480;-73
2023/01/02 03:17:03;;;;;;;3.73;2.20;;;;;;;13.59;62.04;98753.63;5047430;27;103097;-74
2023/01/02 03:19:37;;;;;;;5.77;2.60;;;;;;;13.68;61.98;98751.06;5048610;27;104001;-74
2023/01/02 03:22:11;;;;;;;2.93;2.20;;;;;;;13.59;62.27;98758.94;5046059;27;103904;-74
2023/01/02 03:24:43;;;;;;;3.37;2.10;;;;;;;13.67;62.35;98751.19;5045146;27;103273;-74
2023/01/02 03:27:15;;;;;;;2.30;1.90;;;;;;;13.67;62.47;98745.88;5046548;27;102905;-74
2023/01/02 03:29:47;;;;;;;2.27;2.07;;;;;;;13.63;62.40;98755.06;5046764;27;102747;-74
2023/01/02 03:32:22;;;;;;;3.73;2.13;;;;;;;13.62;62.03;98753.38;5047983;27;103193;-75
2023/01/02 03:34:52;;;;;;;3.20;2.37;;;;;;;13.59;62.67;98753.63;5044468;27;102920;-74
2023/01/02 03:37:25;;;;;;;2.53;2.00;;;;;;;13.56;63.02;98749.41;5045283;27;102715;-74
2023/01/02 03:39:57;;;;;;;2.43;2.07;;;;;;;13.58;62.79;98757.25;5050707;27;102585;-75
2023/01/02 03:42:29;;;;;;;2.63;2.00;;;;;;;13.59;62.88;98759.78;5045391;27;103264;-74
2023/01/02 03:45:04;;;;;;;3.30;2.07;;;;;;;13.58;62.99;98757.25;5046234;27;103334;-74
2023/01/02 03:47:41;;;;;;;3.63;2.20;;;;;;;13.53;62.30;98756.81;5045282;27;102931;-74
2023/01/02 03:50:15;;;;;;;2.57;2.10;;;;;;;13.52;62.61;98752.47;5046643;27;103729;-74
2023/01/02 03:52:43;;;;;;;4.07;2.50;;;;;;;13.44;62.28;98760.22;5048353;27;103240;-72
2023/01/02 03:55:11;;;;;;;2.80;2.00;;;;;;;13.51;62.07;98754.28;5047132;27;103111;-73
2023/01/02 03:57:51;;;;;;;6.40;2.50;;;;;;;13.35;61.68;98762.69;5042228;27;102884;-74
2023/01/02 04:00:35;;;;;;;3.47;2.30;;;;;;;13.29;62.02;98763.19;5047551;27;102536;-73
2023/01/02 04:03:10;;;;;;;4.30;2.10;;;;;;;13.31;62.05;98766.53;5044600;27;103194;-73
2023/01/02 04:05:44;;;;;;;3.63;2.00;;;;;;;13.52;61.89;98757.78;5047531;27;103108;-73
2023/01/02 04:08:20;;;;;;;3.33;2.00;;;;;;;13.54;61.43;98756.69;5047938;27;103248;-75
2023/01/02 04:10:51;;;;;;;4.60;1.90;;;;;;;13.47;61.97;98762.63;5046718;27;102959;-76
2023/01/02 04:13:32;;;;;;;2.17;1.63;;;;;;;13.45;62.51;98762.75;5044025;27;103157;-73
2023/01/02 04:16:02;;;;;;;3.10;1.53;;;;;;;13.53;62.13;98754.97;5046856;27;103117;-73
2023/01/02 04:18:39;;;;;;;2.63;1.50;;;;;;;13.51;62.67;98750.78;5047813;27;103068;-74
2023/01/02 04:21:19;;;;;;;2.07;1.50;;;;;;;13.52;62.47;98744.50;5048487;27;102654;-74
2023/01/02 04:23:49;;;;;;;3.37;1.73;;;;;;;13.47;62.83;98752.00;5044586;27;103268;-73
2023/01/02 04:26:24;;;;;;;2.07;1.63;;;;;;;13.47;62.60;98746.69;5049499;27;103752;-73
2023/01/02 04:28:52;;;;;;;3.73;1.77;;;;;;;13.45;62.72;98740.66;5049233;27;102554;-74
2023/01/02 04:31:28;;;;;;;3.93;1.63;;;;;;;13.48;62.67;98740.41;5052705;27;102983;-74
2023/01/02 04:34:00;;;;;;;2.10;1.73;;;;;;;13.50;62.45;98734.00;5049023;27;103186;-73
2023/01/02 04:36:28;;;;;;;2.23;1.90;;;;;;;13.47;62.53;98730.78;5049608;27;103237;-76
2023/01/02 04:38:55;;;;;;;3.70;1.67;;;;;;;13.48;62.60;98724.47;5051279;27;102915;-75
2023/01/02 04:41:26;;;;;;;3.13;1.80;;;;;;;13.37;62.48;98722.72;5045478;27;102761;-74
2023/01/02 04:43:54;;;;;;;2.90;1.80;;;;;;;13.38;62.40;98720.94;5049665;27;103957;-74
2023/01/02 04:46:23;;;;;;;1.80;1.70;;;;;;;13.20;63.23;98716.19;5046361;27;104333;-74
2023/01/02 04:48:51;;;;;;;2.37;1.80;;;;;;;13.33;62.86;98716.84;5048692;27;102704;-71
2023/01/02 04:51:24;;;;;;;3.70;1.53;;;;;;;13.26;62.37;98723.63;5054148;27;102724;-73
2023/01/02 04:53:53;;;;;;;2.20;1.40;;;;;;;13.30;62.18;98725.03;5050863;27;103945;-71
2023/01/02 04:56:22;;;;;;;3.63;1.60;;;;;;;13.35;61.94;98727.34;5047995;27;103155;-72
2023/01/02 04:58:50;;;;;;;3.50;1.53;;;;;;;13.42;61.26;98723.19;5052775;27;102593;-71
2023/01/02 05:01:20;;;;;;;2.13;1.80;;;;;;;13.47;61.12;98726.31;5050012;27;103928;-71
2023/01/02 05:03:51;;;;;;;3.63;1.87;;;;;;;13.48;61.02;98733.28;5047328;27;103264;-71
2023/01/02 05:06:19;;;;;;;2.47;1.93;;;;;;;13.47;61.06;98736.09;5050759;27;103105;-72
2023/01/02 05:08:48;;;;;;;1.87;1.50;;;;;;;13.49;60.62;98739.44;5051547;27;102520;-71
2023/01/02 05:11:19;;;;;;;2.13;1.50;;;;;;;13.59;60.72;98743.00;5053891;27;102810;-72
2023/01/02 05:13:48;;;;;;;2.77;1.83;;;;;;;13.54;60.77;98750.53;5044592;27;103896;-71
2023/01/02 05:16:15;;;;;;;2.83;1.80;;;;;;;13.62;60.52;98740.09;5048048;27;103106;-71
2023/01/02 05:18:46;;;;;;;4.80;1.80;;;;;;;13.70;60.07;98741.13;5047563;27;102516;-71
2023/01/02 05:23:59;;;;;;;3.37;1.60;;;;;;;13.72;60.00;98738.38;5047241;27;103895;-71
2023/01/02 05:26:29;;;;;;;2.03;1.67;;;;;;;13.67;59.97;98743.22;5050067;27;102969;-72
2023/01/02 05:28:57;;;;;;;5.70;1.90;;;;;;;13.63;60.12;98737.34;5051152;27;102595;-73
2023/01/02 05:31:25;;;;;;;3.60;1.57;;;;;;;13.69;59.44;98738.63;5050902;27;102718;-71
2023/01/02 05:33:54;;;;;;;2.53;1.50;;;;;;;13.73;59.71;98742.69;5050805;27;103162;-73
2023/01/02 05:36:23;;;;;;;3.33;1.37;;;;;;;13.60;60.28;98739.38;5047353;27;103373;-72
2023/01/02 05:38:54;;;;;;;3.83;1.60;;;;;;;13.55;60.58;98742.44;5048385;27;102805;-72
2023/01/02 05:41:23;;;;;;;2.43;1.70;;;;;;;13.55;60.43;98741.59;5047160;27;102990;-72
2023/01/02 05:43:51;;;;;;;3.10;1.60;;;;;;;13.56;60.94;98740.63;5049786;27;103348;-73
2023/01/02 05:46:21;;;;;;;2.97;1.80;;;;;;;13.50;60.91;98738.50;5045890;27;103155;-74
2023/01/02 05:48:48;;;;;;;3.57;1.73;;;;;;;13.47;61.03;98736.09;5061226;27;102544;-72
2023/01/02 05:51:19;;;;;;;4.40;1.80;;;;;;;13.45;61.00;98741.50;5050925;27;102593;-72
2023/01/02 05:53:49;;;;;;;3.60;1.93;;;;;;;13.50;60.69;98738.50;5078914;27;104882;-73
2023/01/02 05:56:21;;;;;;;3.47;1.90;;;;;;;13.55;60.78;98741.59;5042898;27;103676;-87
2023/01/02 05:58:50;;;;;;;2.53;1.60;;;;;;;13.55;60.82;98733.63;5048740;27;102475;-88
2023/01/02 06:01:21;;;;;;;4.57;2.00;;;;;;;13.45;60.74;98738.00;5044885;27;103148;-90
2023/01/02 06:03:50;;;;;;;3.73;1.57;;;;;;;13.43;60.81;98746.13;5052188;27;103249;-87
2023/01/02 06:06:20;;;;;;;2.20;1.67;;;;;;;13.42;60.76;98754.22;5025819;27;103195;-85
2023/01/02 06:08:51;;;;;;;3.57;2.30;;;;;;;13.28;61.21;98752.66;5051729;27;102711;-86
2023/01/02 06:11:19;;;;;;;4.10;2.20;;;;;;;13.36;61.09;98755.56;5050066;27;102650;-86
2023/01/02 06:13:47;;;;;;;3.50;2.27;;;;;;;13.43;60.62;98755.88;5050332;27;103403;-85
2023/01/02 06:16:16;;;;;;;3.73;1.73;;;;;;;13.48;60.26;98764.28;5046683;27;103131;-85
2023/01/02 06:18:44;;;;;;;2.93;1.87;;;;;;;13.60;60.14;98761.47;5048828;27;102646;-81
2023/01/02 06:21:14;;;;;;;3.87;1.80;;;;;;;13.35;60.91;98762.69;5047701;27;102770;-85
2023/01/02 06:23:42;;;;;;;3.40;1.60;;;;;;;13.48;60.75;98769.59;5050990;27;103212;-87
2023/01/02 06:26:12;;;;;;;3.37;1.83;;;;;;;13.53;60.53;98759.47;5045858;27;103218;-87
2023/01/02 06:28:41;;;;;;;2.13;1.73;;;;;;;13.44;60.63;98766.38;5049168;27;102646;-86
2023/01/02 06:31:11;;;;;;;4.90;1.90;;;;;;;13.30;60.45;98775.44;5051911;27;103376;-86
2023/01/02 06:33:40;;;;;;;3.53;1.50;;;;;;;13.33;60.96;98774.38;5050198;27;104091;-87
2023/01/02 06:36:10;;;;;;;2.30;1.93;;;;;;;13.24;61.37;98767.19;5048881;27;103219;-85
2023/01/02 06:38:39;;;;;;;3.70;2.37;;;;;;;13.26;60.87;98779.34;5044606;27;103564;-85
2023/01/02 06:41:08;;;;;;;2.40;1.80;;;;;;;13.25;61.13;98777.66;5051542;27;102695;-84
2023/01/02 06:43:41;;;;;;;2.80;1.80;;;;;;;13.39;60.56;98783.66;5051817;27;103298;-87
2023/01/02 06:46:12;;;;;;;3.07;2.00;;;;;;;13.43;60.20;98787.72;5048127;27;103327;-85
2023/01/02 06:48:42;;;;;;;4.10;1.97;;;;;;;13.42;60.35;98796.69;5047615;27;102660;-87
2023/01/02 06:51:12;;;;;;;3.30;2.00;;;;;;;13.28;60.62;98795.97;5049554;27;104211;-88
2023/01/02 06:53:42;;;;;;;3.90;2.00;;;;;;;13.25;60.79;98804.19;5047665;27;104074;-87
2023/01/02 06:56:11;;;;;;;5.70;2.00;;;;;;;13.24;60.86;98801.66;5046040;27;103346;-86
2023/01/02 06:58:39;;;;;;;2.80;1.60;;;;;;;13.30;60.89;98799.34;5053836;27;102545;-87
2023/01/02 07:01:11;;;;;;;4.00;1.57;;;;;;;13.22;60.81;98799.13;5047920;27;104168;-85
2023/01/02 07:03:39;;;;;;;4.50;2.00;;;;;;;13.24;60.53;98802.50;5049496;27;104759;-85
2023/01/02 07:06:11;;;;;;;3.80;1.97;;;;;;;13.38;59.95;98809.34;5050742;27;103042;-77
2023/01/02 07:08:40;;;;;;;3.13;2.10;;;;;;;13.35;59.94;98809.59;5047127;27;102849;-83
2023/01/02 07:11:11;;;;;;;3.90;2.03;;;;;;;13.45;59.35;98814.97;5046206;27;102598;-82
2023/01/02 07:13:40;;;;;;;3.03;1.70;;;;;;;13.64;57.95;98810.66;5050234;27;103927;-86
2023/01/02 07:16:09;;;;;;;2.60;1.60;;;;;;;13.70;57.42;98822.59;5049277;27;102989;-86
2023/01/02 07:18:37;;;;;;;2.03;1.20;;;;;;;13.82;56.87;98824.22;5048540;27;102633;-78
2023/01/02 07:21:08;;;;;;;2.90;1.20;;;;;;;13.84;56.96;98833.75;5047901;27;103234;-78
2023/01/02 07:23:36;;;;;;;3.10;1.80;;;;;;;13.76;57.95;98825.59;5045395;27;103441;-85
2023/01/02 07:26:06;;;;;;;4.10;1.87;;;;;;;13.67;58.32;98831.66;5044991;27;103163;-85
2023/01/02 07:28:35;;;;;;;4.30;2.17;;;;;;;13.51;59.01;98827.75;5048978;27;102707;-89
2023/01/02 07:31:07;;;;;;;7.07;5.43;;;;;;;13.40;60.09;98835.75;5051090;27;103615;-82
2023/01/02 07:33:35;;;;;;;4.33;2.00;;;;;;;13.14;61.26;98844.00;5049349;27;104245;-81
2023/01/02 07:36:10;;;;;;;2.73;2.10;;;;;;;13.34;60.74;98847.69;5046492;27;103142;-82
2023/01/02 07:38:38;;;;;;;3.67;2.40;;;;;;;13.11;61.30;98849.53;5048609;27;102549;-81
2023/01/02 07:41:14;;;;;;;3.10;1.70;;;;;;;13.21;61.12;98850.50;5048031;27;102936;-82
2023/01/02 07:43:42;;;;;;;3.37;2.00;;;;;;;12.82;63.32;98853.66;5048637;27;103350;-86
2023/01/02 07:46:11;;;;;;;3.20;1.90;;;;;;;13.02;63.11;98855.56;5046509;27;102665;-78
2023/01/02 07:48:39;;;;;;;1.67;1.47;;;;;;;12.76;64.05;98864.75;5044877;27;102725;-79
2023/01/02 07:51:09;;;;;;;4.77;2.30;;;;;;;12.70;64.64;98859.91;5051052;27;103448;-78
2023/01/02 07:53:37;;;;;;;4.90;1.87;;;;;;;12.88;63.92;98863.78;5047217;27;103346;-85
2023/01/02 07:56:05;;;;;;;3.73;1.90;;;;;;;12.23;66.36;98870.69;5042064;27;103164;-80
2023/01/02 07:58:34;;;;;;;4.53;2.20;;;;;;;12.52;65.35;98866.66;5051178;27;102961;-79
2023/01/02 08:01:06;;;;;;;6.70;1.83;;;;;;;12.46;65.66;98869.78;5044986;27;102952;-83
2023/01/02 08:03:33;;;;;;;5.23;2.73;;;;;;;12.54;65.45;98870.03;5044812;27;103189;-78
2023/01/02 08:06:06;;;;;;;4.40;2.13;;;;;;;12.49;65.71;98873.03;5046550;27;104380;-77
2023/01/02 08:08:36;;;;;;;5.30;2.53;;;;;;;12.32;66.47;98865.56;5038044;27;102973;-78
2023/01/02 08:11:05;;;;;;;4.00;2.33;;;;;;;12.34;66.25;98868.06;5042219;27;102808;-78
2023/01/02 08:13:33;;;;;;;3.73;2.10;;;;;;;12.54;65.97;98876.19;5043514;27;104093;-84
2023/01/02 08:16:05;;;;;;;4.07;2.37;;;;;;;12.49;66.99;98872.19;5042516;27;103158;-76
2023/01/02 08:18:34;;;;;;;3.97;2.00;;;;;;;12.52;66.94;98872.78;5045156;27;102608;-76
2023/01/02 08:21:03;;;;;;;2.50;1.70;;;;;;;12.73;66.11;98875.59;5046769;27;104465;-77
2023/01/02 08:23:35;;;;;;;3.37;2.00;;;;;;;12.69;66.76;98882.06;5048831;27;104021;-79
2023/01/02 08:26:05;;;;;;;5.03;2.63;;;;;;;12.67;66.38;98878.72;5041048;27;103265;-76
2023/01/02 08:28:34;;;;;;;3.63;2.50;;;;;;;12.83;65.62;98883.66;5045230;27;102625;-76
2023/01/02 08:31:08;;;;;;;4.30;2.63;;;;;;;12.84;65.94;98888.84;5048534;27;103870;-76
2023/01/02 08:33:36;;;;;;;4.13;2.80;;;;;;;12.92;65.70;98888.22;5042110;27;104151;-87
2023/01/02 08:36:04;;;;;;;4.07;3.13;;;;;;;12.93;65.85;98882.81;5047080;27;102984;-88
2023/01/02 08:38:36;;;;;;;5.10;2.50;;;;;;;12.96;64.64;98898.50;5050305;27;103750;-79
2023/01/02 08:41:04;;;;;;;6.30;2.87;;;;;;;13.10;64.96;98890.31;5043093;27;104369;-82
2023/01/02 08:43:35;;;;;;;5.77;3.00;;;;;;;13.15;65.10;98898.75;5047733;27;103186;-85
2023/01/02 08:46:04;;;;;;;5.33;2.63;;;;;;;13.18;65.20;98893.19;5041351;27;103153;-78
2023/01/02 08:48:32;;;;;;;2.60;1.90;;;;;;;13.30;63.65;98902.81;5044952;27;102948;-79
2023/01/02 08:51:00;;;;;;;3.17;1.97;;;;;;;13.42;63.04;98897.50;5045084;27;102805;-78
2023/01/02 08:53:28;;;;;;;2.37;1.60;;;;;;;13.54;62.08;98900.00;5044990;27;103898;-77
2023/01/02 08:56:22;;;;;;;3.50;1.50;;;;;;;13.76;61.15;98904.41;5043444;27;104030;-78
2023/01/02 08:58:52;;;;;;;4.70;2.10;;;;;;;13.83;60.71;98901.13;5046942;27;102566;-88
2023/01/02 09:01:21;;;;;;;3.07;1.70;;;;;;;13.98;59.88;98898.19;5049055;27;102887;-88
2023/01/02 09:03:50;;;;;;;1.90;1.70;;;;;;;14.10;59.39;98905.97;5047905;27;103649;-85
2023/01/02 09:06:19;;;;;;;3.50;2.30;;;;;;;14.09;58.51;98901.59;5047641;27;104165;-90
2023/01/02 09:08:51;;;;;;;1.73;1.37;;;;;;;14.23;58.83;98903.94;5043958;27;102917;-89
2023/01/02 09:11:26;;;;;;;2.83;2.20;;;;;;;14.34;58.88;98916.41;5044512;27;102749;-90
2023/01/02 09:14:07;;;;;;;1.60;1.27;;;;;;;14.58;58.50;98916.13;5052286;27;104336;-85
2023/01/02 09:16:35;;;;;;;3.50;2.20;;;;;;;14.73;58.08;98913.00;5052812;27;103150;-88
2023/01/02 09:19:03;;;;;;;2.37;1.50;;;;;;;14.82;58.58;98916.69;5052383;27;102915;-82
2023/01/02 09:21:31;;;;;;;3.37;1.83;;;;;;;14.75;59.18;98923.50;5050979;27;102787;-76
2023/01/02 09:23:59;;;;;;;1.80;1.30;;;;;;;14.88;58.71;98926.78;5051514;27;104098;-86
2023/01/02 09:26:31;;;;;;;1.70;1.40;;;;;;;15.16;57.17;98927.91;5045202;27;104142;-80
2023/01/02 09:28:59;;;;;;;4.07;2.30;;;;;;;15.04;55.08;98937.81;5047552;27;102613;-77
2023/01/02 09:31:26;;;;;;;2.33;1.90;;;;;;;15.35;53.74;98923.50;5049373;27;103044;-78
2023/01/02 09:33:57;;;;;;;3.93;1.83;;;;;;;15.34;52.25;98940.44;5049998;27;103196;-78
2023/01/02 09:36:25;;;;;;;2.93;1.43;;;;;;;15.35;51.65;98942.13;5048854;27;102595;-82
2023/01/02 09:38:54;;;;;;;5.67;2.13;;;;;;;15.49;50.44;98941.81;5049884;27;102823;-81
2023/01/02 09:41:33;;;;;;;3.03;1.70;;;;;;;15.50;50.49;98946.13;5051005;27;102569;-75
2023/01/02 09:44:05;;;;;;;3.00;1.63;;;;;;;15.57;50.03;98941.97;5051842;27;103231;-79
2023/01/02 09:46:40;;;;;;;3.07;1.87;;;;;;;15.57;50.40;98946.44;5047232;27;103197;-77
2023/01/02 09:49:13;;;;;;;2.87;1.50;;;;;;;15.68;50.25;98948.13;5051407;27;102857;-77
2023/01/02 09:51:44;;;;;;;3.43;1.70;;;;;;;15.62;50.76;98947.72;5046344;27;102985;-79
2023/01/02 09:54:18;;;;;;;2.73;1.93;;;;;;;15.75;50.74;98947.44;5047319;27;103279;-85
2023/01/02 09:56:52;;;;;;;2.93;1.70;;;;;;;15.72;50.55;98949.56;5036842;27;103863;-76
2023/01/02 09:59:29;;;;;;;2.27;1.57;;;;;;;15.64;50.85;98952.88;5047825;27;102694;-77
2023/01/02 10:02:07;;;;;;;2.77;1.63;;;;;;;15.77;50.22;98958.81;5080300;27;102983;-78
2023/01/02 10:04:55;;;;;;;3.80;1.77;;;;;;;15.87;49.98;98953.50;5047796;27;104131;-79
2023/01/02 10:07:29;;;;;;;4.07;2.00;;;;;;;16.07;49.48;98956.06;5050150;27;102938;-78
2023/01/02 10:10:03;;;;;;;4.50;2.10;;;;;;;16.03;49.02;98969.78;5049082;27;102591;-78
2023/01/02 10:12:37;;;;;;;7.03;2.00;;;;;;;16.04;48.75;98960.81;5044726;27;102896;-78
2023/01/02 10:15:10;;;;;;;5.73;1.83;;;;;;;16.24;48.36;98959.84;5048935;27;103999;-78
2023/01/02 10:17:45;;;;;;;3.77;1.70;;;;;;;16.47;47.79;98968.41;5047763;27;103971;-78
2023/01/02 10:20:24;;;;;;;5.10;1.97;;;;;;;16.66;47.51;98969.25;5047263;27;102671;-78
2023/01/02 10:22:57;;;;;;;3.37;2.20;;;;;;;16.72;47.09;98982.03;5046342;27;102671;-78
2023/01/02 10:25:30;;;;;;;5.63;2.37;;;;;;;16.53;48.54;98983.84;5049485;27;103336;-79
2023/01/02 10:28:07;;;;;;;4.67;2.43;;;;;;;16.84;48.53;98989.88;5044457;27;102980;-80
2023/01/02 10:30:41;;;;;;;9.60;2.90;;;;;;;16.89;48.57;98991.13;5048712;27;103036;-81
2023/01/02 10:33:16;;;;;;;9.20;5.07;;;;;;;16.93;48.24;98984.50;5046670;27;104077;-78
2023/01/02 10:35:49;;;;;;;11.27;5.20;;;;;;;17.16;48.14;98987.69;5048474;27;102982;-78
2023/01/02 10:38:19;;;;;;;11.40;6.10;;;;;;;17.36;47.72;98979.47;5047040;27;103121;-79
2023/01/02 10:40:50;;;;;;;7.60;3.97;;;;;;;17.33;46.54;98987.78;5046968;27;102961;-77
2023/01/02 10:43:19;;;;;;;7.13;2.72;;;;;;;17.74;47.06;98981.13;5046130;27;103784;-79
2023/01/02 10:45:47;;;;;;;3.27;1.70;;;;;;;17.67;45.90;98982.75;5062726;27;104208;-77
2023/01/02 10:48:20;;;;;;;3.50;2.25;;;;;;;17.78;44.51;98979.00;5046185;27;103114;-77
2023/01/02 10:50:51;;;;;;;7.63;1.93;;;;;;;17.85;44.80;98974.78;5047240;27;102694;-77
2023/01/02 10:53:22;;;;;;;4.70;1.83;;;;;;;18.27;44.10;98969.69;5046925;27;103795;-78
2023/01/02 10:55:50;;;;;;;5.78;2.13;;;;;;;18.22;43.94;98966.59;5047529;27;103267;-78
2023/01/02 10:58:23;;;;;;;6.50;2.03;;;;;;;18.81;43.77;98958.78;5044823;27;103625;-77
2023/01/02 11:01:02;;;;;;;3.38;1.75;;;;;;;18.45;43.54;98965.16;5047760;27;102550;-76
2023/01/02 11:03:31;;;;;;;3.90;1.77;;;;;;;18.80;43.09;98967.84;5047356;27;102585;-79
2023/01/02 11:06:01;;;;;;;2.60;1.38;;;;;;;19.24;43.16;98959.72;5043062;27;104041;-78
2023/01/02 11:08:56;;;;;;;6.53;1.73;;;;;;;19.18;42.06;98963.03;5044975;27;104135;-75
2023/01/02 11:11:26;;;;;;;3.28;1.13;;;;;;;19.25;42.49;98964.94;5046364;27;103482;-75
2023/01/02 11:14:04;;;;;;;3.90;2.15;;;;;;;19.05;41.20;98967.00;5042761;27;104087;-76
2023/01/02 11:16:38;;;;;;;1.42;1.25;;;;;;;19.61;41.13;98962.97;5044072;27;103152;-76
2023/01/02 11:19:19;;;;;;;2.25;1.58;;;;;;;19.61;40.49;98963.81;5043905;27;103740;-77
2023/01/02 11:21:56;;;;;;;4.80;1.45;;;;;;;19.63;41.37;98960.97;5044796;27;102706;-76
2023/01/02 11:24:27;;;;;;;3.50;1.50;;;;;;;19.85;40.78;98962.19;5044922;27;102817;-76
2023/01/02 11:26:55;;;;;;;2.65;1.48;;;;;;;20.34;40.26;98963.19;5044789;27;103246;-76
2023/01/02 11:29:30;;;;;;;5.47;2.50;;;;;;;20.05;38.33;98961.75;5046395;27;103215;-76
2023/01/02 11:32:01;;;;;;;3.40;2.33;;;;;;;20.27;39.68;98971.06;5045326;27;102828;-77
2023/01/02 11:34:34;;;;;;;5.38;1.80;;;;;;;20.30;38.17;98961.81;5046331;27;103803;-77
2023/01/02 11:37:06;;;;;;;3.22;1.85;;;;;;;20.25;38.44;98962.34;5045778;27;103226;-77
2023/01/02 11:39:34;;;;;;;6.13;2.80;;;;;;;20.27;37.73;98964.88;5045643;27;103450;-77
2023/01/02 11:45:07;;;;;;;5.72;2.15;;;;;;;20.05;38.27;98964.44;5045244;27;102995;-75
2023/01/02 11:47:39;;;;;;;3.08;1.70;;;;;;;20.40;38.73;98965.22;5042747;27;104010;-76
2023/01/02 11:50:11;;;;;;;3.97;1.67;;;;;;;19.89;38.71;98961.72;5043760;27;104125;-76